x

Galveston,tx - 22 Nm East Of Galveston, Tx (42035) Wave Buoy

8:50am - Sun 24th May 2015 All times are CDT. -5 hours from GMT.

  • Sig Wave height 4.9ft
  • Swell Direction
  • Peak Period 7s
  • Average Period 5s
  • Wind
    20mph, 27mph gusts
  • Sea Temp 80°f
  • Air Temp 74°f
  • Sea Pressure 1014.8mb
  • Galveston,tx -  22 Nm East Of Galveston, Tx
  • Galveston,tx -  22 Nm East Of Galveston, Tx

More Historic Weather Station data

Upgrade to MSW Pro to gain access to the past 30 days of data for over 8000 Wavebouys and Weather Stations around the globe.

Join Pro

Comparision Forecast

View Surf forecast
   
Sun 05/24 8:50am 5ft 7s 5s 20 27 mph 1014.8mb 80f 74f
7:50am 5ft 6s 5s 18 20 mph 1013.9mb 80f 80f
6:50am 5ft 6s 5s 22 27 mph 1013.3mb 80f 80f
5:50am 4.5ft 6s 5s 22 27 mph 1013.2mb 80f 80f
4:50am 4.5ft 6s 5s 20 25 mph 1013.4mb 81f 80f
3:50am 4.5ft 6s 4s 22 27 mph 1013.4mb 81f 80f
2:50am 4.5ft 6s 4s 20 25 mph 1014.2mb 81f 80f
1:50am 4.5ft 5s 4s 22 25 mph 1015.3mb 81f 80f
12:50am 4.5ft 5s 4s 22 27 mph 1015.7mb 81f 80f
Sat 05/23 11:50pm 4ft 5s 4s 20 27 mph 1015.7mb 81f 80f
10:50pm 3.5ft 5s 4s 20 25 mph 1015.8mb 81f 81f
9:50pm 3.5ft 4s 4s 20 22 mph 1015.7mb 81f 80f
8:50pm 3.5ft 4s 4s 20 25 mph 1015mb 81f 80f
7:50pm 3ft 5s 4s 20 25 mph 1014.5mb 81f 80f
6:50pm 3ft 5s 4s 18 20 mph 1014.8mb 81f 80f
5:50pm 2.5ft 5s 4s 18 20 mph 1015.8mb 82f 80f
4:50pm 2.5ft 5s 4s 16 20 mph 1016.7mb 81f 81f
3:50pm 2.5ft 5s 4s 16 18 mph 1017.5mb 81f 81f
2:50pm 2.5ft 5s 4s 13 16 mph 1018.4mb 81f 80f
1:50pm 2.5ft 4s 4s 13 16 mph 1019.1mb 81f 80f
12:50pm 2.5ft 5s 4s 13 16 mph 1019.7mb 81f 80f
11:50am 2.5ft 5s 4s 13 16 mph 1020.1mb 81f 80f
10:50am 2.5ft 6s 4s 13
mph
1020mb 80f 80f
9:50am 2.5ft 5s 4s 13 16 mph 1019.9mb 80f 80f
8:50am 2.5ft 5s 4s 13 16 mph 1019.8mb 80f 80f
7:50am 3ft 4s 4s 16 18 mph 1019.3mb 80f 79f
6:50am 3ft 4s 4s 18 20 mph 1018.7mb 80f 79f
5:50am 3ft 5s 4s 18 20 mph 1018.5mb 80f 79f
4:50am 3ft 5s 4s 18 20 mph 1018.5mb 80f 79f
3:50am 3ft 4s 4s 18 22 mph 1018.3mb 80f 79f
2:50am 3ft 5s 4s 18 20 mph 1018.2mb 80f 79f
1:50am 3ft 4s 4s 18 20 mph 1018.4mb 80f 79f
12:50am 3ft 4s 4s 18 20 mph 1018.5mb 80f 79f
Fri 05/22 11:50pm 3.5ft 4s 4s 18 22 mph 1018.5mb 80f 79f
10:50pm 3.5ft 4s 4s 20 22 mph 1018.4mb 80f 79f
9:50pm 3.5ft 4s 4s 18 22 mph 1018.5mb 80f 79f
8:50pm 3ft 4s 4s 20 22 mph 1018.1mb 80f 79f
7:50pm 2.5ft 4s 4s 18 20 mph 1018.1mb 80f 79f
6:50pm 3ft 4s 4s 18 20 mph 1017.9mb 80f 79f
5:50pm 3.5ft 4s 4s 18 20 mph 1018.4mb 80f 78f
4:50pm 2.5ft 5s 4s 18 20 mph 1018.1mb 80f 78f
3:50pm 3ft 5s 4s 16 20 mph 1018.8mb 80f 77f
2:50pm 3ft 5s 4s 18 22 mph 1019.1mb 80f 76f
1:50pm 3ft 4s 4s 18 22 mph 1019.1mb 80f 76f
12:50pm 3ft 4s 4s 18 20 mph 1019.5mb 80f 75f
11:50am 3ft 5s 4s 16 20 mph 1019.7mb 80f 74f
10:50am 3.5ft 5s 4s 16 20 mph 1019.4mb 80f 73f
9:50am 3.5ft 5s 4s 18 20 mph 1019.2mb 80f 73f
8:50am 3.5ft 5s 4s 18 22 mph 1019.1mb 80f 73f
7:50am 3.5ft 5s 4s 18 20 mph 1018.9mb 80f 73f
6:50am 3.5ft 4s 4s 20 22 mph 1018.6mb 80f 72f
5:50am 3.5ft 5s 4s 20 25 mph 1017.8mb 80f 73f
4:50am 3.5ft 5s 4s 20 25 mph 1017.7mb 80f 75f
3:50am 3.5ft 5s 4s 18 22 mph 1017.6mb 80f 76f
2:50am 3.5ft 5s 4s 18 20 mph 1017.2mb 80f 76f
1:50am 3.5ft 4s 4s 18 20 mph 1016.9mb 80f 76f
12:50am 3.5ft 5s 4s 20 25 mph 1017mb 80f 76f
Thu 05/21 11:50pm 3ft 5s 4s 20 25 mph 1017.2mb 80f 76f
10:50pm 3.5ft 5s 4s 18 20 mph 1017.6mb 81f 78f
9:50pm 3.5ft 5s 4s 18 20 mph 1017mb 81f 78f
8:50pm 3.5ft 5s 4s 16 20 mph 1016.4mb 81f 78f
7:50pm 3.5ft 5s 4s 18 20 mph 1016.2mb 82f 78f
6:50pm 3ft 4s 4s 20 25 mph 1015.6mb 82f 77f
5:50pm 3ft 4s 4s 22 27 mph 1015.6mb 83f 77f
4:50pm 2.5ft 6s 4s 22 25 mph 1016.5mb 83f 77f
3:50pm 2.5ft 6s 4s 20 22 mph 1016.8mb 84f 77f
2:50pm 2ft 6s 5s 4 7 mph 1017mb 85f 81f
1:50pm 1.6ft 6s 4s 2 4 mph 1016.5mb 84f 81f
12:50pm 1.6ft 6s 5s 7 9 mph 1016.4mb 83f 81f
11:50am 1.6ft 6s 5s 7 9 mph 1016.8mb 83f 80f
10:50am 2ft 6s 5s 7 9 mph 1017.1mb 82f 80f
9:50am 2ft 6s 5s 4 7 mph 1016.9mb 82f 80f
8:50am 2ft 6s 4s 9 11 mph 1016.3mb 82f 80f
7:50am 2ft 6s 4s 9 11 mph 1016mb 82f 80f
6:50am 2ft 6s 4s 9 11 mph 1015.9mb 81f 79f
5:50am 2ft 6s 4s 7 9 mph 1015.1mb 81f 79f
4:50am 2ft 6s 4s 9 11 mph 1014.7mb 80f 79f
3:50am 2.5ft 6s 4s 9 11 mph 1015.2mb 80f 79f
2:50am 2ft 6s 4s 7 9 mph 1015.6mb 80f 80f
1:50am 2ft 6s 4s 9
mph
1015.6mb 80f 80f
12:50am 2.5ft 6s 4s 11 13 mph 1015.2mb 81f 80f
Wed 05/20 11:50pm 2.5ft 6s 4s 9 11 mph 1015.3mb 82f 80f
10:50pm 2.5ft 6s 4s 9 11 mph 1015.6mb 82f 80f
9:50pm 2.5ft 5s 4s 11 13 mph 1014.8mb 82f 80f
8:50pm 2.5ft 6s 4s 9 11 mph 1014.4mb 83f 80f
7:50pm 2.5ft 6s 4s 13 16 mph 1013.4mb 83f 80f
6:50pm 2.5ft 6s 4s 13 16 mph 1013.4mb 83f 80f